Hyderabad Weather



Hyderabad's Current Weather

Temprature 27.2o clear sky

clear sky

Rain: 0 %

Min Temprature27.2o
Max Temprature27.2o
Humidity33
Wind Speed3.85 m/h
Sun Rise06:09:26
Sun Set18:46:13
Current Time: 09-Apr-2020 02:44:29
Lat/Lon: 25.39, 68.37




Hyderabad's Geo Location



Hyderabad's Weather Forecast

Time Overall Temp Min Temp Max Temp Humidity Wind Speed Rain
09-Apr-2020 (Thu)
05:00:00 clear sky 26.210 26.210 26.210 26 1.87 m/h 0 %
08:00:00 clear sky 30.380 30.380 30.380 21 0.79 m/h 0 %
11:00:00 clear sky 37.050 37.050 37.050 12 1.35 m/h 0 %
14:00:00 clear sky 39.840 39.840 39.840 9 2.45 m/h 0 %
17:00:00 clear sky 39.820 39.820 39.820 8 2.3 m/h 0 %
20:00:00 clear sky 32.880 32.880 32.880 18 7.61 m/h 0 %
23:00:00 clear sky 29.510 29.510 29.510 25 6.15 m/h 0 %
10-Apr-2020 (Fri)
02:00:00 clear sky 27.900 27.900 27.900 29 4.78 m/h 0 %
05:00:00 clear sky 26.840 26.840 26.840 31 4.19 m/h 0 %
08:00:00 clear sky 30.420 30.420 30.420 22 2.94 m/h 0 %
11:00:00 few clouds 37.960 37.960 37.960 11 1.5 m/h 0 %
14:00:00 clear sky 40.660 40.660 40.660 8 2.45 m/h 0 %
17:00:00 clear sky 40.610 40.610 40.610 7 1.6 m/h 0 %
20:00:00 clear sky 33.220 33.220 33.220 20 7.76 m/h 0 %
23:00:00 clear sky 30.140 30.140 30.140 27 4.81 m/h 0 %
11-Apr-2020 (Sat)
02:00:00 few clouds 29.250 29.250 29.250 26 3.8 m/h 0 %
05:00:00 few clouds 27.320 27.320 27.320 24 1.9 m/h 0 %
08:00:00 few clouds 31.530 31.530 31.530 17 2.3 m/h 0 %
11:00:00 clear sky 39.510 39.510 39.510 10 4.33 m/h 0 %
14:00:00 clear sky 42.090 42.090 42.090 7 2.63 m/h 0 %
17:00:00 clear sky 42.170 42.170 42.170 7 3.01 m/h 0 %
20:00:00 overcast clouds 35.110 35.110 35.110 13 1.09 m/h 0 %
23:00:00 overcast clouds 32.040 32.040 32.040 17 2.64 m/h 0 %
12-Apr-2020 (Sun)
02:00:00 overcast clouds 31.100 31.100 31.100 22 4.8 m/h 0 %
05:00:00 overcast clouds 29.340 29.340 29.340 25 4.05 m/h 0 %
08:00:00 clear sky 33.480 33.480 33.480 18 3.86 m/h 0 %
11:00:00 few clouds 40.650 40.650 40.650 9 2.82 m/h 0 %
14:00:00 overcast clouds 42.780 42.780 42.780 7 3.81 m/h 0 %
17:00:00 overcast clouds 42.130 42.130 42.130 7 6.49 m/h 0 %
20:00:00 overcast clouds 36.030 36.030 36.030 12 8.7 m/h 0 %
23:00:00 broken clouds 32.730 32.730 32.730 17 7.86 m/h 0 %
13-Apr-2020 (Mon)
02:00:00 scattered clouds 31.680 31.680 31.680 17 6.98 m/h 0 %
05:00:00 scattered clouds 29.850 29.850 29.850 20 5.02 m/h 0 %
08:00:00 few clouds 33.780 33.780 33.780 15 6.54 m/h 0 %
11:00:00 clear sky 39.980 39.980 39.980 10 9.85 m/h 0 %
14:00:00 few clouds 41.460 41.460 41.460 8 10.92 m/h 0 %
17:00:00 few clouds 38.830 38.830 38.830 9 10.52 m/h 0 %
20:00:00 broken clouds 32.540 32.540 32.540 15 8.46 m/h 0 %
23:00:00 scattered clouds 29.850 29.850 29.850 25 8.69 m/h 0 %
14-Apr-2020 (Tue)
02:00:00 scattered clouds 28.240 28.240 28.240 34 9.54 m/h 0 %

Famous Cities (61)